sensor_id;sensor_type;location;lat;lon;timestamp;pressure;altitude;pressure_sealevel;temperature;humidity
73455;BME280;61690;51.824;6.306;2023-02-01T00:02:03;101825.41;;;17.67;42.72
73455;BME280;61690;51.824;6.306;2023-02-01T00:04:28;101821.94;;;17.67;42.78
73455;BME280;61690;51.824;6.306;2023-02-01T00:06:54;101819.38;;;17.65;42.79
73455;BME280;61690;51.824;6.306;2023-02-01T00:09:19;101823.78;;;17.64;42.75
73455;BME280;61690;51.824;6.306;2023-02-01T00:11:44;101818.59;;;17.63;43.04
73455;BME280;61690;51.824;6.306;2023-02-01T00:14:10;101818.59;;;17.63;42.75
73455;BME280;61690;51.824;6.306;2023-02-01T00:16:35;101806.34;;;17.62;43.16
73455;BME280;61690;51.824;6.306;2023-02-01T00:19:04;101803.66;;;17.63;42.99
73455;BME280;61690;51.824;6.306;2023-02-01T00:21:30;101799.31;;;17.62;42.95
73455;BME280;61690;51.824;6.306;2023-02-01T00:23:56;101793.97;;;17.64;42.74
73455;BME280;61690;51.824;6.306;2023-02-01T00:28:47;101794.97;;;17.61;42.79
73455;BME280;61690;51.824;6.306;2023-02-01T00:31:12;101785.47;;;17.59;42.68
73455;BME280;61690;51.824;6.306;2023-02-01T00:33:38;101785.41;;;17.60;42.86
73455;BME280;61690;51.824;6.306;2023-02-01T00:36:05;101779.41;;;17.57;43.01
73455;BME280;61690;51.824;6.306;2023-02-01T00:38:32;101780.34;;;17.56;42.95
73455;BME280;61690;51.824;6.306;2023-02-01T00:41:04;101791.69;;;17.56;42.77
73455;BME280;61690;51.824;6.306;2023-02-01T00:43:31;101791.69;;;17.56;42.73
73455;BME280;61690;51.824;6.306;2023-02-01T00:45:56;101786.53;;;17.55;42.93
73455;BME280;61690;51.824;6.306;2023-02-01T00:48:22;101783.13;;;17.53;42.92
73455;BME280;61690;51.824;6.306;2023-02-01T00:50:47;101785.81;;;17.51;42.66
73455;BME280;61690;51.824;6.306;2023-02-01T00:53:12;101789.16;;;17.55;42.69
73455;BME280;61690;51.824;6.306;2023-02-01T00:55:39;101783.25;;;17.50;42.95
73455;BME280;61690;51.824;6.306;2023-02-01T00:58:04;101783.25;;;17.50;42.91
73455;BME280;61690;51.824;6.306;2023-02-01T01:00:34;101772.66;;;17.51;42.73
73455;BME280;61690;51.824;6.306;2023-02-01T01:02:59;101766.63;;;17.49;42.82
73455;BME280;61690;51.824;6.306;2023-02-01T01:05:24;101761.50;;;17.46;42.67
73455;BME280;61690;51.824;6.306;2023-02-01T01:07:52;101774.66;;;17.46;42.97
73455;BME280;61690;51.824;6.306;2023-02-01T01:10:17;101773.81;;;17.46;43.07
73455;BME280;61690;51.824;6.306;2023-02-01T01:12:43;101769.47;;;17.44;42.99
73455;BME280;61690;51.824;6.306;2023-02-01T01:15:08;101769.38;;;17.46;42.86
73455;BME280;61690;51.824;6.306;2023-02-01T01:17:34;101772.97;;;17.45;42.95
73455;BME280;61690;51.824;6.306;2023-02-01T01:19:59;101776.28;;;17.49;42.58
73455;BME280;61690;51.824;6.306;2023-02-01T01:22:24;101781.63;;;17.47;42.55
73455;BME280;61690;51.824;6.306;2023-02-01T01:24:50;101775.72;;;17.42;42.66
73455;BME280;61690;51.824;6.306;2023-02-01T01:27:15;101778.34;;;17.42;42.66
73455;BME280;61690;51.824;6.306;2023-02-01T01:29:40;101769.69;;;17.40;42.59
73455;BME280;61690;51.824;6.306;2023-02-01T01:32:06;101772.25;;;17.41;42.78
73455;BME280;61690;51.824;6.306;2023-02-01T01:34:31;101763.56;;;17.39;42.87
73455;BME280;61690;51.824;6.306;2023-02-01T01:36:56;101767.00;;;17.41;42.67
73455;BME280;61690;51.824;6.306;2023-02-01T01:39:22;101767.91;;;17.40;42.52
73455;BME280;61690;51.824;6.306;2023-02-01T01:41:47;101768.69;;;17.42;42.63
73455;BME280;61690;51.824;6.306;2023-02-01T01:47:15;101772.38;;;17.38;42.59
73455;BME280;61690;51.824;6.306;2023-02-01T01:49:41;101765.50;;;17.36;42.56
73455;BME280;61690;51.824;6.306;2023-02-01T01:52:07;101758.50;;;17.35;42.82
73455;BME280;61690;51.824;6.306;2023-02-01T01:54:36;101753.19;;;17.36;42.71
73455;BME280;61690;51.824;6.306;2023-02-01T01:57:09;101761.16;;;17.35;42.81
73455;BME280;61690;51.824;6.306;2023-02-01T01:59:41;101749.78;;;17.34;42.38
73455;BME280;61690;51.824;6.306;2023-02-01T02:02:08;101753.25;;;17.35;42.56
73455;BME280;61690;51.824;6.306;2023-02-01T02:04:35;101757.72;;;17.33;42.42
73455;BME280;61690;51.824;6.306;2023-02-01T02:07:04;101757.72;;;17.33;42.26
73455;BME280;61690;51.824;6.306;2023-02-01T02:09:30;101762.09;;;17.34;42.44
73455;BME280;61690;51.824;6.306;2023-02-01T02:11:55;101756.03;;;17.32;42.42
73455;BME280;61690;51.824;6.306;2023-02-01T02:14:23;101751.75;;;17.29;42.16
73455;BME280;61690;51.824;6.306;2023-02-01T02:17:59;101756.13;;;17.30;42.63
73455;BME280;61690;51.824;6.306;2023-02-01T02:20:10;101746.56;;;17.28;42.61
73455;BME280;61690;51.824;6.306;2023-02-01T02:25:42;101728.16;;;17.28;42.37
73455;BME280;61690;51.824;6.306;2023-02-01T02:28:45;101726.59;;;17.23;42.40
73455;BME280;61690;51.824;6.306;2023-02-01T02:34:38;101727.31;;;17.27;42.40
73455;BME280;61690;51.824;6.306;2023-02-01T02:37:18;101734.38;;;17.27;42.51
73455;BME280;61690;51.824;6.306;2023-02-01T02:39:55;101730.16;;;17.22;42.33
73455;BME280;61690;51.824;6.306;2023-02-01T02:42:32;101728.31;;;17.24;42.59
73455;BME280;61690;51.824;6.306;2023-02-01T02:45:28;101727.53;;;17.22;42.59
73455;BME280;61690;51.824;6.306;2023-02-01T02:48:20;101721.50;;;17.20;42.23
73455;BME280;61690;51.824;6.306;2023-02-01T02:53:53;101713.69;;;17.19;42.54
73455;BME280;61690;51.824;6.306;2023-02-01T02:56:40;101697.06;;;17.18;42.64
73455;BME280;61690;51.824;6.306;2023-02-01T02:59:25;101702.16;;;17.21;42.16
73455;BME280;61690;51.824;6.306;2023-02-01T03:02:11;101704.00;;;17.19;42.39
73455;BME280;61690;51.824;6.306;2023-02-01T03:04:56;101686.53;;;17.18;42.57
73455;BME280;61690;51.824;6.306;2023-02-01T03:10:18;101683.91;;;17.18;42.61
73455;BME280;61690;51.824;6.306;2023-02-01T03:12:49;101677.88;;;17.16;42.40
73455;BME280;61690;51.824;6.306;2023-02-01T03:15:24;101689.94;;;17.20;42.57
73455;BME280;61690;51.824;6.306;2023-02-01T03:17:55;101683.91;;;17.18;42.44
73455;BME280;61690;51.824;6.306;2023-02-01T03:20:22;101682.97;;;17.19;42.65
73455;BME280;61690;51.824;6.306;2023-02-01T03:22:51;101683.81;;;17.20;42.15
73455;BME280;61690;51.824;6.306;2023-02-01T03:25:22;101673.53;;;17.15;42.56
73455;BME280;61690;51.824;6.306;2023-02-01T03:30:20;101651.59;;;17.16;42.60
73455;BME280;61690;51.824;6.306;2023-02-01T03:32:49;101640.19;;;17.16;42.28
73455;BME280;61690;51.824;6.306;2023-02-01T03:38:23;101650.09;;;17.11;42.49
73455;BME280;61690;51.824;6.306;2023-02-01T03:41:11;101662.25;;;17.13;42.57
73455;BME280;61690;51.824;6.306;2023-02-01T03:43:43;101666.72;;;17.11;42.28
73455;BME280;61690;51.824;6.306;2023-02-01T03:46:19;101656.13;;;17.13;42.13
73455;BME280;61690;51.824;6.306;2023-02-01T03:48:46;101664.22;;;17.08;42.33
73455;BME280;61690;51.824;6.306;2023-02-01T03:51:13;101663.38;;;17.08;42.30
73455;BME280;61690;51.824;6.306;2023-02-01T03:53:39;101669.47;;;17.08;42.21
73455;BME280;61690;51.824;6.306;2023-02-01T03:56:07;101676.47;;;17.09;42.33
73455;BME280;61690;51.824;6.306;2023-02-01T03:58:33;101676.28;;;17.12;42.20
73455;BME280;61690;51.824;6.306;2023-02-01T04:00:59;101677.88;;;17.16;42.11
73455;BME280;61690;51.824;6.306;2023-02-01T04:03:26;101679.63;;;17.35;41.66
73455;BME280;61690;51.824;6.306;2023-02-01T04:05:52;101675.34;;;17.51;41.42
73455;BME280;61690;51.824;6.306;2023-02-01T04:08:19;101668.06;;;17.56;41.42
73455;BME280;61690;51.824;6.306;2023-02-01T04:10:45;101675.09;;;17.56;41.38
73455;BME280;61690;51.824;6.306;2023-02-01T04:13:11;101673.25;;;17.58;41.49
73455;BME280;61690;51.824;6.306;2023-02-01T04:15:36;101660.09;;;17.58;41.02
73455;BME280;61690;51.824;6.306;2023-02-01T04:18:02;101658.25;;;17.60;41.19
73455;BME280;61690;51.824;6.306;2023-02-01T04:20:27;101663.28;;;17.64;41.32
73455;BME280;61690;51.824;6.306;2023-02-01T04:22:52;101659.72;;;17.66;41.09
73455;BME280;61690;51.824;6.306;2023-02-01T04:25:18;101665.63;;;17.71;41.63
73455;BME280;61690;51.824;6.306;2023-02-01T04:27:43;101659.41;;;17.72;41.54
73455;BME280;61690;51.824;6.306;2023-02-01T04:30:09;101664.66;;;17.72;41.55
73455;BME280;61690;51.824;6.306;2023-02-01T04:32:36;101663.69;;;17.74;41.47
73455;BME280;61690;51.824;6.306;2023-02-01T04:35:02;101658.19;;;17.79;41.34
73455;BME280;61690;51.824;6.306;2023-02-01T04:37:27;101667.63;;;17.83;41.02
73455;BME280;61690;51.824;6.306;2023-02-01T04:39:53;101665.78;;;17.85;41.36
73455;BME280;61690;51.824;6.306;2023-02-01T04:42:19;101667.44;;;17.88;41.06
73455;BME280;61690;51.824;6.306;2023-02-01T04:44:44;101662.97;;;17.90;41.12
73455;BME280;61690;51.824;6.306;2023-02-01T04:47:09;101648.78;;;17.92;40.95
73455;BME280;61690;51.824;6.306;2023-02-01T04:49:35;101660.91;;;17.95;40.80
73455;BME280;61690;51.824;6.306;2023-02-01T04:52:00;101671.31;;;17.98;40.91
73455;BME280;61690;51.824;6.306;2023-02-01T04:54:25;101670.28;;;18.00;40.99
73455;BME280;61690;51.824;6.306;2023-02-01T04:56:51;101665.72;;;18.04;41.12
73455;BME280;61690;51.824;6.306;2023-02-01T04:59:16;101664.88;;;18.03;40.90
73455;BME280;61690;51.824;6.306;2023-02-01T05:01:41;101671.88;;;18.05;41.41
73455;BME280;61690;51.824;6.306;2023-02-01T05:04:06;101680.69;;;18.03;40.80
73455;BME280;61690;51.824;6.306;2023-02-01T05:06:32;101691.13;;;18.05;41.27
73455;BME280;61690;51.824;6.306;2023-02-01T05:08:57;101675.41;;;18.03;41.20
73455;BME280;61690;51.824;6.306;2023-02-01T05:11:22;101668.78;;;18.47;40.51
73455;BME280;61690;51.824;6.306;2023-02-01T05:14:06;101652.41;;;18.91;39.57
73455;BME280;61690;51.824;6.306;2023-02-01T05:16:31;101658.94;;;19.32;39.16
73455;BME280;61690;51.824;6.306;2023-02-01T05:18:56;101659.13;;;19.75;39.24
73455;BME280;61690;51.824;6.306;2023-02-01T05:21:22;101656.31;;;20.08;38.81
73455;BME280;61690;51.824;6.306;2023-02-01T05:23:47;101662.31;;;20.41;38.55
73455;BME280;61690;51.824;6.306;2023-02-01T05:26:31;101664.09;;;20.69;38.21
73455;BME280;61690;51.824;6.306;2023-02-01T05:28:56;101658.34;;;20.91;38.18
73455;BME280;61690;51.824;6.306;2023-02-01T05:31:23;101640.34;;;21.10;37.89
73455;BME280;61690;51.824;6.306;2023-02-01T05:33:48;101634.06;;;21.26;38.07
73455;BME280;61690;51.824;6.306;2023-02-01T05:36:14;101642.69;;;21.42;38.00
73455;BME280;61690;51.824;6.306;2023-02-01T05:38:39;101636.38;;;21.30;38.16
73455;BME280;61690;51.824;6.306;2023-02-01T05:41:04;101635.03;;;21.10;39.27
73455;BME280;61690;51.824;6.306;2023-02-01T05:43:30;101642.91;;;20.98;39.74
73455;BME280;61690;51.824;6.306;2023-02-01T05:45:55;101649.34;;;20.93;39.52
73455;BME280;61690;51.824;6.306;2023-02-01T05:48:20;101649.25;;;20.37;39.00
73455;BME280;61690;51.824;6.306;2023-02-01T05:50:46;101653.78;;;20.50;39.95
73455;BME280;61690;51.824;6.306;2023-02-01T05:53:12;101651.19;;;20.64;40.26
73455;BME280;61690;51.824;6.306;2023-02-01T05:55:37;101658.63;;;20.72;39.92
73455;BME280;61690;51.824;6.306;2023-02-01T05:58:03;101660.63;;;20.68;40.44
73455;BME280;61690;51.824;6.306;2023-02-01T06:00:32;101661.84;;;20.63;40.50
73455;BME280;61690;51.824;6.306;2023-02-01T06:02:57;101671.19;;;20.54;40.64
73455;BME280;61690;51.824;6.306;2023-02-01T06:05:23;101664.94;;;20.55;41.13
73455;BME280;61690;51.824;6.306;2023-02-01T06:07:48;101673.41;;;20.46;41.08
73455;BME280;61690;51.824;6.306;2023-02-01T06:10:15;101669.28;;;20.42;41.00
73455;BME280;61690;51.824;6.306;2023-02-01T06:12:41;101667.94;;;20.34;41.01
73455;BME280;61690;51.824;6.306;2023-02-01T06:15:06;101667.38;;;20.29;41.18
73455;BME280;61690;51.824;6.306;2023-02-01T06:17:32;101665.97;;;20.24;41.49
73455;BME280;61690;51.824;6.306;2023-02-01T06:19:57;101672.47;;;20.18;41.41
73455;BME280;61690;51.824;6.306;2023-02-01T06:22:22;101669.91;;;20.16;41.32
73455;BME280;61690;51.824;6.306;2023-02-01T06:24:48;101671.13;;;20.11;42.04
73455;BME280;61690;51.824;6.306;2023-02-01T06:27:13;101668.47;;;20.11;42.06
73455;BME280;61690;51.824;6.306;2023-02-01T06:29:39;101667.47;;;19.83;42.09
73455;BME280;61690;51.824;6.306;2023-02-01T06:32:05;101675.19;;;19.86;42.14
73455;BME280;61690;51.824;6.306;2023-02-01T06:34:30;101678.22;;;19.80;41.85
73455;BME280;61690;51.824;6.306;2023-02-01T06:36:55;101677.09;;;19.68;42.19
73455;BME280;61690;51.824;6.306;2023-02-01T06:39:21;101661.44;;;19.65;42.25
73455;BME280;61690;51.824;6.306;2023-02-01T06:41:49;101670.88;;;19.69;42.30
73455;BME280;61690;51.824;6.306;2023-02-01T06:44:15;101678.91;;;19.68;42.64
73455;BME280;61690;51.824;6.306;2023-02-01T06:46:41;101674.22;;;19.73;42.63
73455;BME280;61690;51.824;6.306;2023-02-01T06:49:06;101677.47;;;19.46;42.50
73455;BME280;61690;51.824;6.306;2023-02-01T06:51:31;101685.06;;;19.52;42.81
73455;BME280;61690;51.824;6.306;2023-02-01T06:53:57;101697.50;;;19.50;42.61
73455;BME280;61690;51.824;6.306;2023-02-01T06:56:23;101694.22;;;19.61;42.97
73455;BME280;61690;51.824;6.306;2023-02-01T06:58:49;101695.06;;;19.62;42.79
73455;BME280;61690;51.824;6.306;2023-02-01T07:01:15;101686.91;;;19.66;43.35
73455;BME280;61690;51.824;6.306;2023-02-01T07:03:41;101692.53;;;19.60;44.09
73455;BME280;61690;51.824;6.306;2023-02-01T07:06:06;101685.66;;;19.42;43.70
73455;BME280;61690;51.824;6.306;2023-02-01T07:08:34;101688.56;;;19.37;43.82
73455;BME280;61690;51.824;6.306;2023-02-01T07:11:08;101691.97;;;19.39;44.14
73455;BME280;61690;51.824;6.306;2023-02-01T07:13:34;101690.06;;;19.25;44.25
73455;BME280;61690;51.824;6.306;2023-02-01T07:16:01;101688.47;;;19.23;44.90
73455;BME280;61690;51.824;6.306;2023-02-01T07:18:27;101685.75;;;19.24;44.56
73455;BME280;61690;51.824;6.306;2023-02-01T07:20:54;101696.88;;;19.13;44.70
73455;BME280;61690;51.824;6.306;2023-02-01T07:23:19;101698.41;;;19.17;45.05
73455;BME280;61690;51.824;6.306;2023-02-01T07:25:45;101698.75;;;19.59;44.60
73455;BME280;61690;51.824;6.306;2023-02-01T07:28:10;101693.78;;;19.85;44.04
73455;BME280;61690;51.824;6.306;2023-02-01T07:30:35;101704.31;;;20.01;43.58
73455;BME280;61690;51.824;6.306;2023-02-01T07:33:01;101700.09;;;20.12;43.33
73455;BME280;61690;51.824;6.306;2023-02-01T07:35:27;101702.28;;;20.34;42.63
73455;BME280;61690;51.824;6.306;2023-02-01T07:37:52;101704.50;;;20.56;42.80
73455;BME280;61690;51.824;6.306;2023-02-01T07:40:18;101692.19;;;20.55;42.14
73455;BME280;61690;51.824;6.306;2023-02-01T07:42:43;101704.16;;;20.32;42.84
73455;BME280;61690;51.824;6.306;2023-02-01T07:45:09;101698.56;;;20.08;43.64
73455;BME280;61690;51.824;6.306;2023-02-01T07:47:34;101699.38;;;19.94;43.61
73455;BME280;61690;51.824;6.306;2023-02-01T07:49:59;101711.03;;;19.90;43.75
73455;BME280;61690;51.824;6.306;2023-02-01T07:52:27;101701.22;;;19.62;44.23
73455;BME280;61690;51.824;6.306;2023-02-01T07:54:53;101703.78;;;19.48;44.66
73455;BME280;61690;51.824;6.306;2023-02-01T07:57:19;101709.50;;;19.56;44.00
73455;BME280;61690;51.824;6.306;2023-02-01T07:59:44;101707.84;;;19.53;44.21
73455;BME280;61690;51.824;6.306;2023-02-01T08:02:28;101702.94;;;19.47;44.36
73455;BME280;61690;51.824;6.306;2023-02-01T08:04:53;101705.28;;;19.52;44.13
73455;BME280;61690;51.824;6.306;2023-02-01T08:07:18;101710.50;;;19.37;44.32
73455;BME280;61690;51.824;6.306;2023-02-01T08:09:44;101709.41;;;19.26;44.28
73455;BME280;61690;51.824;6.306;2023-02-01T08:12:09;101709.22;;;19.13;43.55
73455;BME280;61690;51.824;6.306;2023-02-01T08:14:34;101711.66;;;19.00;43.84
73455;BME280;61690;51.824;6.306;2023-02-01T08:17:00;101725.28;;;18.92;42.70
73455;BME280;61690;51.824;6.306;2023-02-01T08:19:25;101724.56;;;18.89;43.24
73455;BME280;61690;51.824;6.306;2023-02-01T08:21:50;101729.25;;;18.84;43.47
73455;BME280;61690;51.824;6.306;2023-02-01T08:24:15;101723.31;;;18.80;43.28
73455;BME280;61690;51.824;6.306;2023-02-01T08:26:41;101730.19;;;18.83;43.44
73455;BME280;61690;51.824;6.306;2023-02-01T08:29:08;101729.63;;;18.93;43.20
73455;BME280;61690;51.824;6.306;2023-02-01T08:31:35;101729.09;;;18.87;43.39
73455;BME280;61690;51.824;6.306;2023-02-01T08:34:02;101725.88;;;18.82;43.96
73455;BME280;61690;51.824;6.306;2023-02-01T08:36:31;101730.47;;;18.76;43.71
73455;BME280;61690;51.824;6.306;2023-02-01T08:38:57;101734.69;;;18.80;43.50
73455;BME280;61690;51.824;6.306;2023-02-01T08:41:24;101731.31;;;18.77;43.53
73455;BME280;61690;51.824;6.306;2023-02-01T08:43:50;101732.19;;;18.77;43.58
73455;BME280;61690;51.824;6.306;2023-02-01T08:46:16;101733.19;;;18.92;42.95
73455;BME280;61690;51.824;6.306;2023-02-01T08:48:42;101738.84;;;18.85;43.23
73455;BME280;61690;51.824;6.306;2023-02-01T08:51:10;101723.91;;;18.68;43.22
73455;BME280;61690;51.824;6.306;2023-02-01T08:53:37;101727.63;;;18.64;43.15
73455;BME280;61690;51.824;6.306;2023-02-01T08:56:05;101725.25;;;18.59;43.47
73455;BME280;61690;51.824;6.306;2023-02-01T08:58:31;101708.75;;;18.55;43.16
73455;BME280;61690;51.824;6.306;2023-02-01T09:00:56;101713.94;;;18.57;43.14
73455;BME280;61690;51.824;6.306;2023-02-01T09:03:21;101712.22;;;18.56;43.04
73455;BME280;61690;51.824;6.306;2023-02-01T09:05:47;101702.78;;;18.52;43.02
73455;BME280;61690;51.824;6.306;2023-02-01T09:08:13;101707.22;;;18.51;42.45
73455;BME280;61690;51.824;6.306;2023-02-01T09:10:40;101715.13;;;18.51;42.41
73455;BME280;61690;51.824;6.306;2023-02-01T09:13:07;101707.34;;;18.48;42.68
73455;BME280;61690;51.824;6.306;2023-02-01T09:15:33;101694.03;;;18.51;42.58
73455;BME280;61690;51.824;6.306;2023-02-01T09:17:59;101701.94;;;18.51;42.66
73455;BME280;61690;51.824;6.306;2023-02-01T09:20:24;101700.31;;;18.49;42.12
73455;BME280;61690;51.824;6.306;2023-02-01T09:22:51;101702.84;;;18.50;42.03
73455;BME280;61690;51.824;6.306;2023-02-01T09:25:16;101700.91;;;18.54;42.32
73455;BME280;61690;51.824;6.306;2023-02-01T09:27:42;101700.16;;;18.52;42.01
73455;BME280;61690;51.824;6.306;2023-02-01T09:30:08;101689.78;;;18.49;42.04
73455;BME280;61690;51.824;6.306;2023-02-01T09:32:33;101688.84;;;18.50;41.89
73455;BME280;61690;51.824;6.306;2023-02-01T09:34:58;101697.69;;;18.49;42.12
73455;BME280;61690;51.824;6.306;2023-02-01T09:37:24;101694.09;;;18.50;41.66
73455;BME280;61690;51.824;6.306;2023-02-01T09:39:49;101682.72;;;18.49;41.64
73455;BME280;61690;51.824;6.306;2023-02-01T09:47:53;101689.09;;;18.45;41.75
73455;BME280;61690;51.824;6.306;2023-02-01T09:50:22;101687.44;;;18.42;41.42
73455;BME280;61690;51.824;6.306;2023-02-01T09:52:57;101682.38;;;18.39;41.79
73455;BME280;61690;51.824;6.306;2023-02-01T09:56:04;101693.81;;;18.38;41.86
73455;BME280;61690;51.824;6.306;2023-02-01T09:58:41;101699.97;;;18.39;41.50
73455;BME280;61690;51.824;6.306;2023-02-01T10:01:16;101702.59;;;18.39;41.49
73455;BME280;61690;51.824;6.306;2023-02-01T10:03:43;101707.06;;;18.37;41.22
73455;BME280;61690;51.824;6.306;2023-02-01T10:17:02;101683.59;;;18.32;41.09
73455;BME280;61690;51.824;6.306;2023-02-01T10:27:38;101681.03;;;18.31;41.52
73455;BME280;61690;51.824;6.306;2023-02-01T10:30:26;101679.34;;;18.30;41.19
73455;BME280;61690;51.824;6.306;2023-02-01T10:32:56;101664.47;;;18.29;41.41
73455;BME280;61690;51.824;6.306;2023-02-01T10:35:28;101670.56;;;18.29;40.84
73455;BME280;61690;51.824;6.306;2023-02-01T10:37:53;101671.59;;;18.27;41.03
73455;BME280;61690;51.824;6.306;2023-02-01T10:40:23;101672.56;;;18.26;41.28
73455;BME280;61690;51.824;6.306;2023-02-01T10:42:51;101678.81;;;18.23;41.21
73455;BME280;61690;51.824;6.306;2023-02-01T10:45:20;101667.50;;;18.21;41.35
73455;BME280;61690;51.824;6.306;2023-02-01T10:47:49;101674.47;;;18.22;41.35
73455;BME280;61690;51.824;6.306;2023-02-01T10:53:01;101659.69;;;18.19;41.23
73455;BME280;61690;51.824;6.306;2023-02-01T10:58:05;101661.53;;;18.17;41.29
73455;BME280;61690;51.824;6.306;2023-02-01T11:00:57;101658.13;;;18.15;40.75
73455;BME280;61690;51.824;6.306;2023-02-01T11:08:50;101655.81;;;18.09;40.81
73455;BME280;61690;51.824;6.306;2023-02-01T11:11:15;101655.81;;;18.09;40.94
73455;BME280;61690;51.824;6.306;2023-02-01T11:13:41;101661.16;;;18.08;41.09
73455;BME280;61690;51.824;6.306;2023-02-01T11:16:12;101661.00;;;18.11;41.19
73455;BME280;61690;51.824;6.306;2023-02-01T11:18:38;101655.91;;;18.08;41.23
73455;BME280;61690;51.824;6.306;2023-02-01T11:21:05;101651.66;;;18.05;41.26
73455;BME280;61690;51.824;6.306;2023-02-01T11:23:32;101648.00;;;18.08;41.13
73455;BME280;61690;51.824;6.306;2023-02-01T11:26:09;101637.72;;;18.03;41.34
73455;BME280;61690;51.824;6.306;2023-02-01T11:28:38;101641.03;;;18.07;41.10
73455;BME280;61690;51.824;6.306;2023-02-01T11:31:09;101631.69;;;18.01;40.97
73455;BME280;61690;51.824;6.306;2023-02-01T11:33:37;101631.69;;;18.01;41.06
73455;BME280;61690;51.824;6.306;2023-02-01T11:36:18;101626.34;;;18.02;41.17
73455;BME280;61690;51.824;6.306;2023-02-01T11:38:51;101616.88;;;17.98;41.01
73455;BME280;61690;51.824;6.306;2023-02-01T11:41:23;101625.06;;;18.10;40.96
73455;BME280;61690;51.824;6.306;2023-02-01T11:43:59;101610.28;;;18.40;41.10
73455;BME280;61690;51.824;6.306;2023-02-01T11:46:30;101606.25;;;18.67;40.22
73455;BME280;61690;51.824;6.306;2023-02-01T11:48:57;101596.34;;;18.88;40.14
73455;BME280;61690;51.824;6.306;2023-02-01T11:54:40;101593.78;;;19.48;39.09
73455;BME280;61690;51.824;6.306;2023-02-01T11:57:15;101604.69;;;19.58;39.23
73455;BME280;61690;51.824;6.306;2023-02-01T12:05:31;101596.03;;;20.58;38.25
73455;BME280;61690;51.824;6.306;2023-02-01T12:11:01;101597.91;;;21.12;38.04
73455;BME280;61690;51.824;6.306;2023-02-01T12:16:37;101593.94;;;21.59;37.90
73455;BME280;61690;51.824;6.306;2023-02-01T12:27:53;101595.06;;;22.21;37.61
73455;BME280;61690;51.824;6.306;2023-02-01T12:32:59;101584.97;;;22.39;37.62
73455;BME280;61690;51.824;6.306;2023-02-01T12:35:49;101576.78;;;22.55;37.45
73455;BME280;61690;51.824;6.306;2023-02-01T12:38:35;101580.59;;;22.63;37.40
73455;BME280;61690;51.824;6.306;2023-02-01T12:46:50;101566.44;;;22.76;37.22
73455;BME280;61690;51.824;6.306;2023-02-01T12:49:23;101571.50;;;22.16;36.24
73455;BME280;61690;51.824;6.306;2023-02-01T12:51:58;101576.28;;;21.85;36.60
73455;BME280;61690;51.824;6.306;2023-02-01T12:54:35;101582.53;;;22.10;37.32
73455;BME280;61690;51.824;6.306;2023-02-01T12:57:06;101584.66;;;22.05;37.58
73455;BME280;61690;51.824;6.306;2023-02-01T12:59:40;101582.88;;;21.92;38.03
73455;BME280;61690;51.824;6.306;2023-02-01T13:02:23;101588.88;;;21.82;38.27
73455;BME280;61690;51.824;6.306;2023-02-01T13:05:02;101582.09;;;21.65;38.77
73455;BME280;61690;51.824;6.306;2023-02-01T13:07:34;101583.66;;;21.54;39.14
73455;BME280;61690;51.824;6.306;2023-02-01T13:13:11;101574.25;;;21.36;39.82
73455;BME280;61690;51.824;6.306;2023-02-01T13:15:43;101575.00;;;21.25;39.84
73455;BME280;61690;51.824;6.306;2023-02-01T13:18:16;101576.44;;;21.17;40.32
73455;BME280;61690;51.824;6.306;2023-02-01T13:20:49;101574.00;;;21.13;40.33
73455;BME280;61690;51.824;6.306;2023-02-01T13:23:25;101568.34;;;21.05;40.87
73455;BME280;61690;51.824;6.306;2023-02-01T13:25:52;101576.53;;;20.88;40.77
73455;BME280;61690;51.824;6.306;2023-02-01T13:34:15;101586.00;;;20.78;41.72
73455;BME280;61690;51.824;6.306;2023-02-01T13:42:27;101578.75;;;20.52;41.85
73455;BME280;61690;51.824;6.306;2023-02-01T13:45:03;101590.94;;;20.55;42.03
73455;BME280;61690;51.824;6.306;2023-02-01T13:47:32;101592.06;;;20.51;42.25
73455;BME280;61690;51.824;6.306;2023-02-01T13:50:19;101598.28;;;20.50;42.36
73455;BME280;61690;51.824;6.306;2023-02-01T13:52:53;101591.88;;;20.40;42.57
73455;BME280;61690;51.824;6.306;2023-02-01T13:57:49;101600.50;;;20.29;43.18
73455;BME280;61690;51.824;6.306;2023-02-01T14:00:30;101611.72;;;20.18;43.34
73455;BME280;61690;51.824;6.306;2023-02-01T14:13:54;101597.25;;;19.95;44.03
73455;BME280;61690;51.824;6.306;2023-02-01T14:16:20;101608.34;;;19.86;44.57
73455;BME280;61690;51.824;6.306;2023-02-01T14:21:31;101614.56;;;19.85;43.80
73455;BME280;61690;51.824;6.306;2023-02-01T14:29:03;101611.19;;;19.67;44.23
73455;BME280;61690;51.824;6.306;2023-02-01T14:31:53;101621.75;;;19.67;44.39
73455;BME280;61690;51.824;6.306;2023-02-01T14:34:26;101615.88;;;19.62;44.74
73455;BME280;61690;51.824;6.306;2023-02-01T14:36:59;101613.16;;;19.63;43.93
73455;BME280;61690;51.824;6.306;2023-02-01T14:39:27;101620.63;;;19.71;44.43
73455;BME280;61690;51.824;6.306;2023-02-01T14:41:57;101623.91;;;19.76;44.35
73455;BME280;61690;51.824;6.306;2023-02-01T14:44:29;101625.69;;;19.75;44.64
73455;BME280;61690;51.824;6.306;2023-02-01T14:47:28;101615.81;;;19.79;44.22
73455;BME280;61690;51.824;6.306;2023-02-01T14:49:57;101621.25;;;19.76;44.57
73455;BME280;61690;51.824;6.306;2023-02-01T14:52:35;101626.66;;;19.58;45.12
73455;BME280;61690;51.824;6.306;2023-02-01T14:55:04;101614.47;;;19.72;45.20
73455;BME280;61690;51.824;6.306;2023-02-01T14:57:34;101605.53;;;19.58;45.73
73455;BME280;61690;51.824;6.306;2023-02-01T15:00:24;101614.03;;;19.64;45.44
73455;BME280;61690;51.824;6.306;2023-02-01T15:02:51;101612.09;;;19.51;45.54
73455;BME280;61690;51.824;6.306;2023-02-01T15:07:51;101615.50;;;19.53;45.57
73455;BME280;61690;51.824;6.306;2023-02-01T15:10:19;101616.06;;;19.74;45.09